Time,TemperatureF,DewpointF,PressureIn,WindDirection,WindDirectionDegrees,WindSpeedMPH,WindSpeedGustMPH,Humidity,HourlyPrecipIn,Conditions,Clouds,dailyrainin,SoftwareType,DateUTC
2013-07-04 00:07:00,73.1,69.0,30.15,NE,56,2.0,4.0,88,0.00,,,0.00,weatherlink.com 1.10,2013-07-04 04:07:00,
2013-07-04 00:22:00,73.0,69.0,30.15,NW,321,2.0,6.0,88,0.00,,,0.00,weatherlink.com 1.10,2013-07-04 04:22:00,
2013-07-04 00:37:00,72.6,69.0,30.14,SE,146,1.0,4.0,89,0.00,,,0.00,weatherlink.com 1.10,2013-07-04 04:37:00,
2013-07-04 00:52:00,72.7,69.0,30.14,West,263,1.0,4.0,89,0.00,,,0.00,weatherlink.com 1.10,2013-07-04 04:52:00,
2013-07-04 01:07:00,72.5,69.0,30.14,NNW,345,1.0,4.0,89,0.00,,,0.00,weatherlink.com 1.10,2013-07-04 05:07:00,
2013-07-04 01:22:00,72.6,69.0,30.14,WNW,290,1.0,5.0,89,0.00,,,0.00,weatherlink.com 1.10,2013-07-04 05:22:00,
2013-07-04 01:37:00,72.1,69.0,30.15,NW,308,0.0,5.0,90,0.00,,,0.00,weatherlink.com 1.10,2013-07-04 05:37:00,
2013-07-04 01:52:00,71.8,69.0,30.15,NE,53,1.0,3.0,90,0.00,,,0.00,weatherlink.com 1.10,2013-07-04 05:52:00,
2013-07-04 02:07:00,71.8,69.0,30.14,NNW,345,2.0,2.0,90,0.00,,,0.00,weatherlink.com 1.10,2013-07-04 06:07:00,
2013-07-04 02:22:00,71.7,69.0,30.14,NW,316,1.0,2.0,90,0.00,,,0.00,weatherlink.com 1.10,2013-07-04 06:22:00,
2013-07-04 02:37:00,71.2,69.0,30.14,ENE,70,0.0,2.0,91,0.00,,,0.00,weatherlink.com 1.10,2013-07-04 06:37:00,
2013-07-04 02:52:00,71.1,69.0,30.14,NNE,26,0.0,3.0,92,0.00,,,0.00,weatherlink.com 1.10,2013-07-04 06:52:00,
2013-07-04 03:07:00,70.8,68.0,30.14,NE,39,1.0,3.0,92,0.00,,,0.00,weatherlink.com 1.10,2013-07-04 07:07:00,
2013-07-04 03:22:00,70.7,68.0,30.14,NE,43,0.0,3.0,92,0.00,,,0.00,weatherlink.com 1.10,2013-07-04 07:22:00,
2013-07-04 03:37:00,71.0,69.0,30.14,NNW,338,0.0,6.0,92,0.00,,,0.00,weatherlink.com 1.10,2013-07-04 07:37:00,
2013-07-04 03:52:00,70.4,68.0,30.14,NNW,331,3.0,4.0,93,0.00,,,0.00,weatherlink.com 1.10,2013-07-04 07:52:00,
2013-07-04 04:07:00,70.4,68.0,30.14,ENE,77,0.0,2.0,93,0.00,,,0.00,weatherlink.com 1.10,2013-07-04 08:07:00,
2013-07-04 04:22:00,70.0,68.0,30.15,WNW,285,0.0,1.0,94,0.00,,,0.00,weatherlink.com 1.10,2013-07-04 08:22:00,
2013-07-04 04:37:00,69.4,68.0,30.15,North,1,0.0,1.0,95,0.00,,,0.00,weatherlink.com 1.10,2013-07-04 08:37:00,
2013-07-04 04:52:00,69.0,68.0,30.15,ESE,113,0.0,2.0,96,0.00,,,0.00,weatherlink.com 1.10,2013-07-04 08:52:00,
2013-07-04 05:07:00,69.0,68.0,30.15,SSW,209,1.0,2.0,96,0.00,,,0.00,weatherlink.com 1.10,2013-07-04 09:07:00,
2013-07-04 05:22:00,69.3,68.0,30.15,West,270,0.0,2.0,96,0.00,,,0.00,weatherlink.com 1.10,2013-07-04 09:22:00,
2013-07-04 05:37:00,69.2,68.0,30.16,ENE,74,0.0,1.0,96,0.00,,,0.00,weatherlink.com 1.10,2013-07-04 09:37:00,
2013-07-04 05:52:00,69.2,68.0,30.16,SSW,207,0.0,1.0,96,0.00,,,0.00,weatherlink.com 1.10,2013-07-04 09:52:00,
2013-07-04 06:07:00,69.3,68.0,30.16,East,94,0.0,2.0,96,0.00,,,0.00,weatherlink.com 1.10,2013-07-04 10:07:00,
2013-07-04 06:22:00,69.5,68.0,30.16,SE,143,0.0,2.0,96,0.00,,,0.00,weatherlink.com 1.10,2013-07-04 10:22:00,
2013-07-04 06:37:00,70.4,69.0,30.16,WNW,289,1.0,4.0,94,0.00,,,0.00,weatherlink.com 1.10,2013-07-04 10:37:00,
2013-07-04 06:52:00,70.8,69.0,30.16,North,351,0.0,4.0,93,0.00,,,0.00,weatherlink.com 1.10,2013-07-04 10:52:00,
2013-07-04 07:07:00,70.8,69.0,30.17,North,354,5.0,5.0,93,0.00,,,0.00,weatherlink.com 1.10,2013-07-04 11:07:00,
2013-07-04 07:22:00,71.6,69.0,30.17,NW,315,1.0,5.0,92,0.00,,,0.00,weatherlink.com 1.10,2013-07-04 11:22:00,
2013-07-04 07:37:00,72.1,69.0,30.17,WSW,248,1.0,4.0,91,0.00,,,0.00,weatherlink.com 1.10,2013-07-04 11:37:00,
2013-07-04 07:52:00,72.5,70.0,30.17,NW,311,0.0,3.0,90,0.00,,,0.00,weatherlink.com 1.10,2013-07-04 11:52:00,
2013-07-04 08:07:00,73.0,70.0,30.17,NNW,330,0.0,3.0,90,0.00,,,0.00,weatherlink.com 1.10,2013-07-04 12:07:00,
2013-07-04 08:23:00,73.6,70.0,30.17,NW,325,0.0,5.0,89,0.00,,,0.00,weatherlink.com 1.10,2013-07-04 12:23:00,
2013-07-04 08:38:00,74.3,71.0,30.18,NW,305,0.0,3.0,88,0.00,,,0.00,weatherlink.com 1.10,2013-07-04 12:38:00,
2013-07-04 08:53:00,75.2,71.0,30.18,NNW,337,4.0,4.0,86,0.00,,,0.00,weatherlink.com 1.10,2013-07-04 12:53:00,
2013-07-04 09:08:00,75.5,71.0,30.17,WNW,300,1.0,3.0,85,0.00,,,0.00,weatherlink.com 1.10,2013-07-04 13:08:00,
2013-07-04 09:23:00,76.0,71.0,30.17,WNW,291,0.0,3.0,85,0.00,,,0.00,weatherlink.com 1.10,2013-07-04 13:23:00,
2013-07-04 09:38:00,76.6,72.0,30.17,NW,319,1.0,4.0,85,0.00,,,0.00,weatherlink.com 1.10,2013-07-04 13:38:00,
2013-07-04 09:53:00,77.6,72.0,30.17,NNE,15,1.0,2.0,83,0.00,,,0.00,weatherlink.com 1.10,2013-07-04 13:53:00,
2013-07-04 10:08:00,78.2,72.0,30.17,South,189,0.0,3.0,82,0.00,,,0.00,weatherlink.com 1.10,2013-07-04 14:08:00,
2013-07-04 10:23:00,79.2,72.0,30.17,SW,218,0.0,3.0,79,0.00,,,0.00,weatherlink.com 1.10,2013-07-04 14:23:00,
2013-07-04 10:38:00,80.2,73.0,30.16,WNW,297,1.0,2.0,79,0.00,,,0.00,weatherlink.com 1.10,2013-07-04 14:38:00,
2013-07-04 10:53:00,80.2,73.0,30.16,North,356,1.0,2.0,78,0.00,,,0.00,weatherlink.com 1.10,2013-07-04 14:53:00,
2013-07-04 11:08:00,80.2,72.0,30.16,WNW,294,0.0,3.0,76,0.00,,,0.00,weatherlink.com 1.10,2013-07-04 15:08:00,
2013-07-04 11:23:00,81.6,73.0,30.15,NNE,33,0.0,4.0,75,0.00,,,0.00,weatherlink.com 1.10,2013-07-04 15:23:00,
2013-07-04 11:38:00,81.1,72.0,30.15,NNW,348,4.0,7.0,73,0.00,,,0.00,weatherlink.com 1.10,2013-07-04 15:38:00,
2013-07-04 11:53:00,82.2,73.0,30.14,ESE,113,0.0,4.0,73,0.00,,,0.00,weatherlink.com 1.10,2013-07-04 15:53:00,
2013-07-04 12:08:00,84.1,72.0,30.14,NNW,338,1.0,3.0,68,0.00,,,0.00,weatherlink.com 1.10,2013-07-04 16:08:00,
2013-07-04 12:23:00,84.7,73.0,30.14,SE,131,0.0,3.0,69,0.00,,,0.00,weatherlink.com 1.10,2013-07-04 16:23:00,
2013-07-04 12:38:00,84.7,71.0,30.13,WNW,299,1.0,3.0,64,0.00,,,0.00,weatherlink.com 1.10,2013-07-04 16:38:00,
2013-07-04 12:53:00,85.6,73.0,30.13,South,173,0.0,4.0,65,0.00,,,0.00,weatherlink.com 1.10,2013-07-04 16:53:00,
2013-07-04 13:08:00,85.6,73.0,30.12,SSE,167,0.0,3.0,66,0.00,,,0.00,weatherlink.com 1.10,2013-07-04 17:08:00,
2013-07-04 13:23:00,86.0,72.0,30.11,NW,308,2.0,3.0,64,0.00,,,0.00,weatherlink.com 1.10,2013-07-04 17:23:00,
2013-07-04 13:39:00,85.2,73.0,30.11,East,90,1.0,2.0,67,0.00,,,0.00,weatherlink.com 1.10,2013-07-04 17:39:00,
2013-07-04 13:54:00,85.2,71.0,30.10,NNW,330,1.0,7.0,63,0.00,,,0.00,weatherlink.com 1.10,2013-07-04 17:54:00,
2013-07-04 14:09:00,85.0,73.0,30.09,WNW,294,0.0,2.0,67,0.00,,,0.00,weatherlink.com 1.10,2013-07-04 18:09:00,
2013-07-04 14:24:00,85.1,73.0,30.09,NW,308,0.0,2.0,67,0.00,,,0.00,weatherlink.com 1.10,2013-07-04 18:24:00,
2013-07-04 14:39:00,87.3,75.0,30.09,NNE,16,2.0,2.0,66,0.00,,,0.00,weatherlink.com 1.10,2013-07-04 18:39:00,
2013-07-04 14:54:00,87.6,73.0,30.08,NNE,33,1.0,4.0,62,0.00,,,0.00,weatherlink.com 1.10,2013-07-04 18:54:00,
2013-07-04 15:09:00,87.2,72.0,30.08,WNW,284,0.0,4.0,60,0.00,,,0.00,weatherlink.com 1.10,2013-07-04 19:09:00,
2013-07-04 15:24:00,87.9,72.0,30.08,West,277,1.0,6.0,59,0.00,,,0.00,weatherlink.com 1.10,2013-07-04 19:24:00,
2013-07-04 15:39:00,85.7,71.0,30.08,NW,310,2.0,2.0,62,0.00,,,0.00,weatherlink.com 1.10,2013-07-04 19:39:00,
2013-07-04 15:54:00,86.8,73.0,30.07,SW,235,0.0,1.0,64,0.00,,,0.00,weatherlink.com 1.10,2013-07-04 19:54:00,
2013-07-04 16:09:00,87.7,73.0,30.06,WSW,243,0.0,3.0,62,0.00,,,0.00,weatherlink.com 1.10,2013-07-04 20:09:00,
2013-07-04 16:24:00,87.3,74.0,30.06,SE,140,2.0,5.0,64,0.00,,,0.00,weatherlink.com 1.10,2013-07-04 20:24:00,
2013-07-04 16:39:00,86.4,73.0,30.06,East,99,1.0,2.0,64,0.00,,,0.00,weatherlink.com 1.10,2013-07-04 20:39:00,
2013-07-04 16:54:00,86.8,73.0,30.06,West,269,0.0,3.0,64,0.00,,,0.00,weatherlink.com 1.10,2013-07-04 20:54:00,
2013-07-04 17:09:00,88.7,74.0,30.06,North,8,1.0,4.0,61,0.00,,,0.00,weatherlink.com 1.10,2013-07-04 21:09:00,
2013-07-04 17:24:00,87.5,74.0,30.05,SSW,203,2.0,2.0,64,0.00,,,0.00,weatherlink.com 1.10,2013-07-04 21:24:00,
2013-07-04 17:39:00,86.5,73.0,30.05,WNW,291,0.0,4.0,65,0.00,,,0.00,weatherlink.com 1.10,2013-07-04 21:39:00,
2013-07-04 17:54:00,86.4,73.0,30.04,WSW,248,1.0,4.0,64,0.00,,,0.00,weatherlink.com 1.10,2013-07-04 21:54:00,
2013-07-04 18:09:00,86.5,74.0,30.04,SE,135,0.0,1.0,67,0.00,,,0.00,weatherlink.com 1.10,2013-07-04 22:09:00,
2013-07-04 18:24:00,85.8,72.0,30.04,NNE,24,1.0,3.0,63,0.00,,,0.00,weatherlink.com 1.10,2013-07-04 22:24:00,
2013-07-04 18:39:00,86.1,72.0,30.05,West,276,0.0,4.0,63,0.00,,,0.00,weatherlink.com 1.10,2013-07-04 22:39:00,
2013-07-04 18:54:00,84.6,72.0,30.06,WSW,248,0.0,2.0,65,0.00,,,0.00,weatherlink.com 1.10,2013-07-04 22:54:00,
2013-07-04 19:09:00,82.8,72.0,30.06,SE,129,0.0,3.0,69,0.00,,,0.00,weatherlink.com 1.10,2013-07-04 23:09:00,
2013-07-04 19:24:00,82.9,71.0,30.06,North,353,0.0,1.0,68,0.00,,,0.00,weatherlink.com 1.10,2013-07-04 23:24:00,
2013-07-04 19:39:00,82.2,72.0,30.06,SSE,162,0.0,1.0,70,0.00,,,0.00,weatherlink.com 1.10,2013-07-04 23:39:00,
2013-07-04 19:54:00,80.2,71.0,30.07,ENE,75,1.0,1.0,74,0.00,,,0.00,weatherlink.com 1.10,2013-07-04 23:54:00,
2013-07-04 20:09:00,78.7,71.0,30.07,NE,50,0.0,1.0,78,0.00,,,0.00,weatherlink.com 1.10,2013-07-05 00:09:00,
2013-07-04 20:24:00,77.8,71.0,30.07,ENE,77,0.0,2.0,80,0.00,,,0.00,weatherlink.com 1.10,2013-07-05 00:24:00,
2013-07-04 20:39:00,76.9,71.0,30.07,NNE,33,0.0,2.0,82,0.00,,,0.00,weatherlink.com 1.10,2013-07-05 00:39:00,
2013-07-04 20:54:00,77.0,71.0,30.07,NW,316,0.0,2.0,82,0.00,,,0.00,weatherlink.com 1.10,2013-07-05 00:54:00,
2013-07-04 21:09:00,77.5,71.0,30.07,NW,322,1.0,3.0,81,0.00,,,0.00,weatherlink.com 1.10,2013-07-05 01:09:00,
2013-07-04 21:24:00,77.6,71.0,30.08,NW,319,1.0,2.0,81,0.00,,,0.00,weatherlink.com 1.10,2013-07-05 01:24:00,
2013-07-04 21:39:00,77.5,71.0,30.09,NNW,345,2.0,5.0,81,0.00,,,0.00,weatherlink.com 1.10,2013-07-05 01:39:00,
2013-07-04 21:54:00,76.6,71.0,30.09,SSE,166,0.0,2.0,83,0.00,,,0.00,weatherlink.com 1.10,2013-07-05 01:54:00,
2013-07-04 22:09:00,75.7,71.0,30.08,ESE,115,1.0,1.0,85,0.00,,,0.00,weatherlink.com 1.10,2013-07-05 02:09:00,
2013-07-04 22:24:00,75.9,71.0,30.09,WNW,289,1.0,4.0,85,0.00,,,0.00,weatherlink.com 1.10,2013-07-05 02:24:00,
2013-07-04 22:39:00,75.5,71.0,30.09,WNW,299,0.0,2.0,86,0.00,,,0.00,weatherlink.com 1.10,2013-07-05 02:39:00,
2013-07-04 22:54:00,74.2,71.0,30.08,WNW,300,0.0,0.0,89,0.00,,,0.00,weatherlink.com 1.10,2013-07-05 02:54:00,
2013-07-04 23:09:00,73.2,71.0,30.08,NNW,335,0.0,0.0,91,0.00,,,0.00,weatherlink.com 1.10,2013-07-05 03:09:00,
2013-07-04 23:24:00,73.2,71.0,30.09,WNW,290,0.0,0.0,91,0.00,,,0.00,weatherlink.com 1.10,2013-07-05 03:24:00,
2013-07-04 23:39:00,73.6,71.0,30.09,WNW,288,0.0,2.0,91,0.00,,,0.00,weatherlink.com 1.10,2013-07-05 03:39:00,
2013-07-04 23:54:00,73.9,71.0,30.09,WNW,299,2.0,2.0,90,0.00,,,0.00,weatherlink.com 1.10,2013-07-05 03:54:00,